Time;durP1;ratioP1;P1;durP2;ratioP2;P2;SDS_P1;SDS_P2;PMS_P1;PMS_P2;Temp;Humidity;BMP_temperature;BMP_pressure;BME280_temperature;BME280_humidity;BME280_pressure;Samples;Min_cycle;Max_cycle;Signal;HPM_P1;HPM_P2
2023/07/09 00:01:56;;;;;;;7.70;5.88;;;24.80;74.40;;;;;;5073488;28;20028;-74
2023/07/09 00:04:22;;;;;;;8.48;6.05;;;24.80;75.00;;;;;;5073705;28;20043;-74
2023/07/09 00:06:48;;;;;;;11.02;6.47;;;24.70;74.00;;;;;;5073416;28;20075;-74
2023/07/09 00:09:21;;;;;;;13.88;6.07;;;24.70;73.70;;;;;;5073577;28;20016;-74
2023/07/09 00:11:48;;;;;;;9.45;6.38;;;24.70;74.00;;;;;;5073699;28;20039;-74
2023/07/09 00:14:15;;;;;;;7.63;6.50;;;24.70;74.50;;;;;;5073552;28;20372;-74
2023/07/09 00:16:42;;;;;;;12.70;6.32;;;24.60;74.90;;;;;;5073358;28;20055;-74
2023/07/09 00:19:20;;;;;;;9.40;6.20;;;24.60;75.30;;;;;;5073444;28;20032;-74
2023/07/09 00:21:49;;;;;;;8.98;5.80;;;24.60;75.60;;;;;;5073322;28;20021;-74
2023/07/09 00:24:14;;;;;;;8.45;5.85;;;24.60;76.20;;;;;;5055409;28;20012;-74
2023/07/09 00:26:41;;;;;;;10.77;6.40;;;24.50;76.20;;;;;;5073395;28;20529;-74
2023/07/09 00:29:11;;;;;;;9.30;6.55;;;24.50;76.20;;;;;;5073199;28;20028;-74
2023/07/09 00:31:41;;;;;;;11.77;6.70;;;24.50;76.30;;;;;;5073446;28;20099;-74
2023/07/09 00:34:11;;;;;;;9.65;6.60;;;24.50;76.50;;;;;;5072939;28;20474;-74
2023/07/09 00:36:38;;;;;;;6.47;5.65;;;24.50;76.20;;;;;;5073083;28;20145;-73
2023/07/09 00:39:07;;;;;;;13.77;6.10;;;24.50;76.30;;;;;;5073214;28;20024;-74
2023/07/09 00:41:37;;;;;;;11.00;6.25;;;24.50;76.20;;;;;;5072991;28;20060;-74
2023/07/09 00:44:33;;;;;;;10.50;6.13;;;24.50;76.40;;;;;;5054697;28;20031;-74
2023/07/09 00:47:01;;;;;;;7.72;5.85;;;24.40;76.40;;;;;;5073250;28;20078;-74
2023/07/09 00:49:31;;;;;;;9.15;6.45;;;24.40;77.10;;;;;;5072976;28;20078;-73
2023/07/09 00:52:01;;;;;;;8.07;5.97;;;24.40;76.80;;;;;;5072635;28;20110;-73
2023/07/09 00:54:41;;;;;;;10.02;6.18;;;24.30;76.60;;;;;;5072749;28;20070;-74
2023/07/09 00:57:12;;;;;;;7.95;6.60;;;24.30;76.50;;;;;;5072705;28;20525;-74
2023/07/09 00:59:40;;;;;;;6.97;5.68;;;24.30;76.90;;;;;;5070317;28;20494;-73
2023/07/09 01:02:08;;;;;;;8.05;6.20;;;24.20;77.60;;;;;;5070033;28;20033;-74
2023/07/09 01:04:34;;;;;;;10.55;6.53;;;24.20;77.20;;;;;;5071324;28;20471;-74
2023/07/09 01:07:00;;;;;;;11.75;6.38;;;24.20;76.90;;;;;;5072417;28;20520;-74
2023/07/09 01:09:26;;;;;;;12.93;6.53;;;24.20;76.80;;;;;;5072644;28;20028;-74
2023/07/09 01:11:56;;;;;;;10.45;6.30;;;24.20;77.10;;;;;;5072753;28;20074;-74
2023/07/09 01:14:25;;;;;;;7.90;6.13;;;24.10;77.30;;;;;;5072277;28;20424;-73
2023/07/09 01:17:03;;;;;;;8.23;6.25;;;24.10;77.10;;;;;;5072135;28;20051;-73
2023/07/09 01:19:42;;;;;;;11.73;6.03;;;24.10;76.90;;;;;;5072507;28;20359;-74
2023/07/09 01:22:11;;;;;;;10.45;6.72;;;24.10;76.60;;;;;;5054342;28;20091;-74
2023/07/09 01:24:59;;;;;;;10.73;6.70;;;24.00;76.50;;;;;;5072596;28;20077;-73
2023/07/09 01:27:33;;;;;;;12.27;6.30;;;24.00;76.90;;;;;;5072380;28;20021;-74
2023/07/09 01:30:00;;;;;;;12.32;6.65;;;23.90;77.10;;;;;;5072284;28;20020;-74
2023/07/09 01:32:27;;;;;;;7.70;5.82;;;23.90;76.80;;;;;;5072325;28;20482;-74
2023/07/09 01:34:57;;;;;;;9.75;6.00;;;23.90;76.80;;;;;;5072324;28;20113;-74
2023/07/09 01:37:26;;;;;;;18.08;6.93;;;23.90;77.30;;;;;;5072305;28;20043;-73
2023/07/09 01:39:53;;;;;;;12.70;6.22;;;23.80;77.20;;;;;;5072180;28;20482;-73
2023/07/09 01:42:24;;;;;;;8.65;6.70;;;23.80;77.10;;;;;;5054262;28;20079;-74
2023/07/09 01:44:51;;;;;;;8.38;6.30;;;23.80;77.10;;;;;;5072655;28;20025;-74
2023/07/09 01:47:17;;;;;;;8.45;6.35;;;23.70;77.50;;;;;;5072417;28;20028;-74
2023/07/09 01:49:46;;;;;;;9.07;6.50;;;23.70;77.70;;;;;;5072484;28;20020;-73
2023/07/09 01:52:14;;;;;;;8.45;6.43;;;23.70;77.90;;;;;;5072457;28;20104;-74
2023/07/09 01:54:39;;;;;;;10.82;6.03;;;23.70;78.00;;;;;;5073312;28;20043;-74
2023/07/09 01:57:22;;;;;;;9.50;5.90;;;23.70;78.20;;;;;;5075795;28;20098;-74
2023/07/09 01:59:52;;;;;;;8.52;6.10;;;23.70;78.20;;;;;;5076150;28;20035;-74
2023/07/09 02:02:18;;;;;;;10.02;6.43;;;23.60;77.90;;;;;;5076186;28;20417;-74
2023/07/09 02:04:52;;;;;;;9.48;6.63;;;23.60;77.90;;;;;;5075727;28;20031;-73
2023/07/09 02:07:19;;;;;;;10.10;6.18;;;23.60;77.80;;;;;;5075738;28;20099;-73
2023/07/09 02:09:45;;;;;;;12.35;6.60;;;23.60;77.90;;;;;;5075863;28;20025;-74
2023/07/09 02:12:12;;;;;;;8.45;6.07;;;23.60;78.00;;;;;;5075795;28;20028;-73
2023/07/09 02:14:38;;;;;;;7.57;6.55;;;23.60;78.30;;;;;;5075972;28;20029;-73
2023/07/09 02:17:04;;;;;;;8.13;6.40;;;23.60;78.30;;;;;;5075510;28;20075;-74
2023/07/09 02:19:30;;;;;;;9.88;6.38;;;23.60;78.40;;;;;;5075704;28;20035;-73
2023/07/09 02:21:56;;;;;;;9.38;6.28;;;23.60;78.30;;;;;;5075757;28;20021;-74
2023/07/09 02:24:24;;;;;;;17.13;6.75;;;23.60;78.40;;;;;;5075650;28;20056;-73
2023/07/09 02:27:01;;;;;;;8.88;6.40;;;23.60;78.60;;;;;;5075634;28;20027;-73
2023/07/09 02:29:28;;;;;;;14.00;6.60;;;23.60;78.50;;;;;;5057581;28;20024;-73
2023/07/09 02:31:56;;;;;;;10.18;6.28;;;23.50;78.60;;;;;;5075415;28;20074;-74
2023/07/09 02:34:25;;;;;;;8.35;6.45;;;23.60;78.90;;;;;;5075455;28;20067;-73
2023/07/09 02:36:52;;;;;;;9.07;6.57;;;23.50;78.90;;;;;;5075372;28;20094;-73
2023/07/09 02:39:19;;;;;;;7.57;6.13;;;23.50;79.00;;;;;;5075281;28;20103;-74
2023/07/09 02:41:45;;;;;;;12.23;5.63;;;23.50;79.20;;;;;;5075118;28;20029;-74
2023/07/09 02:44:11;;;;;;;11.65;6.20;;;23.50;79.20;;;;;;5075214;28;20017;-74
2023/07/09 02:46:36;;;;;;;10.45;6.32;;;23.40;79.10;;;;;;5075263;28;20025;-73
2023/07/09 02:49:06;;;;;;;9.55;6.18;;;23.40;79.00;;;;;;5075145;28;20410;-74
2023/07/09 02:51:33;;;;;;;7.78;6.30;;;23.40;79.10;;;;;;5075012;28;20028;-73
2023/07/09 02:54:00;;;;;;;10.55;6.35;;;23.40;79.00;;;;;;5075087;28;20027;-74
2023/07/09 02:56:26;;;;;;;10.77;6.45;;;23.40;78.80;;;;;;5074902;28;20167;-74
2023/07/09 02:58:52;;;;;;;7.97;5.90;;;23.40;78.70;;;;;;5074892;28;20377;-73
2023/07/09 03:01:24;;;;;;;8.00;6.50;;;23.40;78.40;;;;;;5074799;28;20021;-73
2023/07/09 03:03:51;;;;;;;10.38;6.72;;;23.30;78.30;;;;;;5074699;28;20021;-73
2023/07/09 03:06:16;;;;;;;8.77;6.88;;;23.40;79.10;;;;;;5074585;28;20021;-73
2023/07/09 03:08:42;;;;;;;9.00;7.18;;;23.30;78.60;;;;;;5074739;28;20023;-73
2023/07/09 03:11:11;;;;;;;10.40;6.57;;;23.30;78.90;;;;;;5074792;28;20045;-74
2023/07/09 03:13:37;;;;;;;10.80;6.43;;;23.30;78.90;;;;;;5074440;28;20020;-73
2023/07/09 03:16:03;;;;;;;9.88;6.30;;;23.30;78.90;;;;;;5074332;28;20090;-74
2023/07/09 03:18:28;;;;;;;8.05;6.30;;;23.30;79.00;;;;;;5056581;28;20021;-73
2023/07/09 03:20:54;;;;;;;8.52;6.32;;;23.20;79.00;;;;;;5074619;28;20021;-74
2023/07/09 03:23:20;;;;;;;9.80;6.72;;;23.20;79.30;;;;;;5074550;28;20106;-74
2023/07/09 03:25:45;;;;;;;10.85;6.10;;;23.20;79.30;;;;;;5074613;28;20025;-74
2023/07/09 03:28:12;;;;;;;9.95;5.80;;;23.20;79.10;;;;;;5074350;28;20104;-74
2023/07/09 03:30:44;;;;;;;6.85;6.07;;;23.20;79.30;;;;;;5074482;28;20474;-74
2023/07/09 03:33:12;;;;;;;8.00;6.30;;;23.10;79.30;;;;;;5074257;28;20017;-73
2023/07/09 03:35:38;;;;;;;9.52;6.30;;;23.10;79.20;;;;;;5074206;28;20032;-73
2023/07/09 03:38:05;;;;;;;10.07;6.70;;;23.10;79.20;;;;;;5074112;28;20021;-73
2023/07/09 03:40:30;;;;;;;9.18;5.95;;;23.00;79.30;;;;;;5074155;28;20032;-73
2023/07/09 03:42:56;;;;;;;8.00;6.55;;;23.00;79.40;;;;;;5074200;28;20028;-74
2023/07/09 03:45:22;;;;;;;10.35;6.60;;;23.10;79.50;;;;;;5074106;28;20021;-74
2023/07/09 03:47:48;;;;;;;7.75;6.45;;;23.10;79.50;;;;;;5074058;28;20406;-74
2023/07/09 03:50:13;;;;;;;12.75;6.78;;;23.00;79.60;;;;;;5073770;28;20431;-73
2023/07/09 03:52:39;;;;;;;12.50;6.60;;;23.00;79.90;;;;;;5055978;28;20101;-74
2023/07/09 03:55:05;;;;;;;10.32;6.38;;;23.00;80.20;;;;;;5073695;28;20056;-73
2023/07/09 03:57:32;;;;;;;10.10;6.72;;;23.00;80.40;;;;;;5073736;28;20120;-74
2023/07/09 03:59:58;;;;;;;11.20;7.00;;;23.00;80.40;;;;;;5073504;28;20020;-74
2023/07/09 04:02:24;;;;;;;13.05;6.22;;;23.00;80.70;;;;;;5073694;28;20044;-73
2023/07/09 04:04:50;;;;;;;8.02;6.30;;;23.00;80.40;;;;;;5073512;28;20020;-74
2023/07/09 04:07:16;;;;;;;10.18;6.40;;;23.00;80.20;;;;;;5073654;28;20031;-74
2023/07/09 04:09:42;;;;;;;9.13;6.25;;;23.00;80.20;;;;;;5073543;28;20025;-73
2023/07/09 04:12:09;;;;;;;9.65;6.65;;;23.00;80.10;;;;;;5073478;28;20028;-74
2023/07/09 04:14:35;;;;;;;10.00;6.50;;;23.00;80.10;;;;;;5073513;28;20382;-74
2023/07/09 04:17:00;;;;;;;7.43;6.20;;;22.90;80.20;;;;;;5072483;28;20045;-74
2023/07/09 04:19:26;;;;;;;10.13;6.68;;;22.90;80.50;;;;;;5073539;28;20074;-74
2023/07/09 04:21:52;;;;;;;9.57;6.03;;;22.90;80.70;;;;;;5073539;28;20043;-73
2023/07/09 04:24:19;;;;;;;8.70;6.70;;;23.00;81.00;;;;;;5073117;28;20025;-74
2023/07/09 04:26:45;;;;;;;7.25;6.35;;;22.90;81.10;;;;;;5073117;28;20032;-74
2023/07/09 04:29:11;;;;;;;7.43;6.10;;;23.00;81.50;;;;;;5073042;28;20039;-73
2023/07/09 04:31:38;;;;;;;10.20;6.38;;;23.00;81.60;;;;;;5073078;28;20019;-74
2023/07/09 04:34:04;;;;;;;11.18;7.70;;;23.00;81.70;;;;;;5073158;28;20077;-73
2023/07/09 04:36:31;;;;;;;11.35;6.15;;;23.00;81.70;;;;;;5073075;28;20032;-74
2023/07/09 04:38:57;;;;;;;8.73;6.07;;;23.00;81.70;;;;;;5073074;28;20024;-74
2023/07/09 04:41:22;;;;;;;7.53;6.47;;;23.00;81.90;;;;;;5073021;28;20043;-73
2023/07/09 04:43:48;;;;;;;9.27;5.95;;;23.00;81.90;;;;;;5055124;28;20388;-73
2023/07/09 04:46:14;;;;;;;8.07;6.20;;;23.00;81.70;;;;;;5072900;28;20037;-74
2023/07/09 04:48:40;;;;;;;8.80;6.15;;;23.00;81.60;;;;;;5072716;28;20024;-74
2023/07/09 04:51:06;;;;;;;10.55;6.63;;;23.10;81.60;;;;;;5072867;28;20039;-74
2023/07/09 04:53:31;;;;;;;6.80;6.10;;;23.10;81.50;;;;;;5072800;28;20474;-74
2023/07/09 04:55:57;;;;;;;10.20;6.25;;;23.10;81.40;;;;;;5072975;28;20039;-74
2023/07/09 04:58:23;;;;;;;9.00;6.35;;;23.10;81.30;;;;;;5072628;28;20489;-74
2023/07/09 05:00:50;;;;;;;10.38;6.10;;;23.10;81.20;;;;;;5073074;28;20036;-73
2023/07/09 05:03:18;;;;;;;8.77;6.40;;;23.20;81.20;;;;;;5072764;28;20474;-74
2023/07/09 05:05:47;;;;;;;12.75;7.03;;;23.20;81.10;;;;;;5072516;28;20098;-73
2023/07/09 05:08:13;;;;;;;9.40;6.40;;;23.20;81.10;;;;;;5072424;28;20032;-74
2023/07/09 05:10:49;;;;;;;12.15;6.40;;;23.20;81.30;;;;;;5072726;28;20070;-74
2023/07/09 05:13:15;;;;;;;8.20;6.22;;;23.20;81.70;;;;;;5072924;28;20027;-74
2023/07/09 05:15:44;;;;;;;9.55;6.20;;;23.20;81.90;;;;;;5072600;28;20094;-74
2023/07/09 05:18:10;;;;;;;8.80;6.03;;;23.30;82.40;;;;;;5072754;28;20029;-74
2023/07/09 05:20:36;;;;;;;12.57;6.30;;;23.30;82.30;;;;;;5072619;28;20525;-74
2023/07/09 05:23:02;;;;;;;11.07;6.50;;;23.30;82.30;;;;;;5054715;28;20056;-74
2023/07/09 05:25:28;;;;;;;10.77;6.88;;;23.30;82.30;;;;;;5072575;28;20382;-74
2023/07/09 05:27:54;;;;;;;9.85;6.32;;;23.40;82.50;;;;;;5072618;28;20016;-74
2023/07/09 05:30:20;;;;;;;9.88;7.72;;;23.40;82.40;;;;;;5076493;28;20051;-73
2023/07/09 05:32:46;;;;;;;9.05;6.72;;;23.50;82.60;;;;;;5076682;28;20035;-74
2023/07/09 05:35:12;;;;;;;12.23;6.32;;;23.60;82.70;;;;;;5076286;28;20017;-74
2023/07/09 05:37:38;;;;;;;8.43;6.30;;;23.60;82.60;;;;;;5076477;28;20082;-74
2023/07/09 05:40:05;;;;;;;13.48;6.63;;;23.60;82.40;;;;;;5076564;28;20016;-73
2023/07/09 05:42:32;;;;;;;10.85;6.97;;;23.70;82.10;;;;;;5076246;28;20032;-74
2023/07/09 05:44:58;;;;;;;7.93;6.63;;;23.80;82.00;;;;;;5076315;28;20481;-74
2023/07/09 05:47:25;;;;;;;9.43;6.70;;;23.80;82.20;;;;;;5076093;28;20027;-74
2023/07/09 05:49:50;;;;;;;12.48;7.10;;;23.90;82.40;;;;;;5058217;28;20021;-74
2023/07/09 05:52:18;;;;;;;12.30;6.53;;;23.90;82.30;;;;;;5076276;28;20031;-74
2023/07/09 05:54:44;;;;;;;9.50;6.75;;;23.90;82.40;;;;;;5076475;28;20086;-74
2023/07/09 05:57:10;;;;;;;9.80;6.57;;;23.90;82.60;;;;;;5075826;28;20482;-74
2023/07/09 05:59:36;;;;;;;11.13;6.85;;;23.90;82.60;;;;;;5076005;28;20021;-73
2023/07/09 06:02:03;;;;;;;9.73;6.75;;;24.00;82.50;;;;;;5076175;28;20082;-74
2023/07/09 06:04:30;;;;;;;10.35;7.00;;;24.00;82.40;;;;;;5076069;28;20025;-73
2023/07/09 06:06:56;;;;;;;10.98;7.40;;;24.00;82.40;;;;;;5076013;28;20039;-74
2023/07/09 06:09:22;;;;;;;11.85;6.32;;;24.10;82.30;;;;;;5076023;28;20063;-73
2023/07/09 06:11:48;;;;;;;11.63;7.03;;;24.10;82.30;;;;;;5076019;28;20028;-74
2023/07/09 06:14:16;;;;;;;10.32;6.50;;;24.20;82.40;;;;;;5075965;28;20375;-74
2023/07/09 06:16:43;;;;;;;8.63;7.38;;;24.20;82.00;;;;;;5075491;28;20577;-74
2023/07/09 06:19:09;;;;;;;8.32;6.88;;;24.30;81.90;;;;;;5075548;28;20382;-74
2023/07/09 06:21:35;;;;;;;12.50;7.20;;;24.30;81.90;;;;;;5075388;28;20020;-74
2023/07/09 06:24:01;;;;;;;11.43;6.05;;;24.30;81.90;;;;;;5075538;28;20538;-74
2023/07/09 06:26:27;;;;;;;14.45;6.75;;;24.30;81.80;;;;;;5075534;28;20115;-74
2023/07/09 06:28:52;;;;;;;9.88;6.82;;;24.40;81.90;;;;;;5075683;28;20032;-74
2023/07/09 06:31:20;;;;;;;13.23;6.25;;;24.40;81.70;;;;;;5075194;28;20033;-74
2023/07/09 06:33:47;;;;;;;11.43;6.32;;;24.50;81.40;;;;;;5075558;28;20043;-74
2023/07/09 06:36:13;;;;;;;10.80;6.60;;;24.50;81.20;;;;;;5075234;28;20478;-74
2023/07/09 06:38:39;;;;;;;9.57;6.97;;;24.50;81.20;;;;;;5057502;28;20146;-74
2023/07/09 06:41:05;;;;;;;12.48;6.80;;;24.50;81.30;;;;;;5074905;28;20111;-74
2023/07/09 06:43:31;;;;;;;9.52;6.80;;;24.60;81.30;;;;;;5075239;28;20091;-74
2023/07/09 06:45:59;;;;;;;10.60;6.82;;;24.60;81.30;;;;;;5075014;28;20028;-74
2023/07/09 06:48:27;;;;;;;8.48;6.05;;;24.60;81.30;;;;;;5075130;28;20025;-74
2023/07/09 06:50:54;;;;;;;11.10;6.78;;;24.70;81.20;;;;;;5074890;28;20021;-74
2023/07/09 06:53:21;;;;;;;14.82;7.25;;;24.70;80.80;;;;;;5056991;28;20424;-74
2023/07/09 06:55:48;;;;;;;6.93;6.22;;;24.80;80.40;;;;;;5074980;28;20028;-76
2023/07/09 06:58:15;;;;;;;9.98;6.03;;;24.80;80.30;;;;;;5057149;28;20025;-74
2023/07/09 07:00:41;;;;;;;12.57;6.43;;;24.90;80.10;;;;;;5074767;28;20027;-74
2023/07/09 07:03:08;;;;;;;10.95;7.00;;;24.90;79.90;;;;;;5074780;28;20032;-74
2023/07/09 07:05:34;;;;;;;9.63;5.95;;;24.90;79.90;;;;;;5074841;28;20478;-74
2023/07/09 07:08:01;;;;;;;12.60;6.22;;;25.00;79.80;;;;;;5074748;28;20074;-75
2023/07/09 07:10:27;;;;;;;8.82;6.40;;;25.00;79.70;;;;;;5074827;28;20017;-74
2023/07/09 07:12:54;;;;;;;9.70;6.35;;;25.10;79.50;;;;;;5074759;28;20016;-74
2023/07/09 07:15:20;;;;;;;9.45;6.43;;;25.10;79.20;;;;;;5074409;28;20037;-74
2023/07/09 07:17:46;;;;;;;12.35;6.40;;;25.20;79.00;;;;;;5074615;28;20056;-74
2023/07/09 07:20:13;;;;;;;12.43;6.47;;;25.20;78.50;;;;;;5074642;28;20556;-74
2023/07/09 07:22:39;;;;;;;9.32;5.93;;;25.30;78.60;;;;;;5074641;28;20501;-74
2023/07/09 07:25:07;;;;;;;8.38;6.03;;;25.30;78.50;;;;;;5074531;28;20029;-74
2023/07/09 07:27:33;;;;;;;16.80;7.32;;;25.40;78.40;;;;;;5074199;28;20029;-74
2023/07/09 07:30:00;;;;;;;9.93;6.40;;;25.50;78.80;;;;;;5074339;28;20052;-74
2023/07/09 07:32:25;;;;;;;7.43;5.75;;;25.50;79.00;;;;;;5056220;28;20421;-73
2023/07/09 07:34:51;;;;;;;7.50;5.63;;;25.50;78.40;;;;;;5074369;28;20028;-74
2023/07/09 07:37:21;;;;;;;10.88;5.93;;;25.60;78.10;;;;;;5074285;28;20503;-74
2023/07/09 07:39:49;;;;;;;7.57;6.55;;;25.70;77.80;;;;;;5074484;28;20127;-73
2023/07/09 07:42:15;;;;;;;10.13;6.53;;;25.70;77.10;;;;;;5073913;28;20029;-74
2023/07/09 07:44:41;;;;;;;9.80;6.32;;;25.80;76.70;;;;;;5074159;28;20058;-74
2023/07/09 07:47:06;;;;;;;11.82;6.30;;;25.80;76.30;;;;;;5074215;28;20402;-74
2023/07/09 07:49:32;;;;;;;10.20;6.03;;;25.90;76.00;;;;;;5073888;28;20024;-74
2023/07/09 07:51:58;;;;;;;6.93;6.10;;;25.90;75.60;;;;;;5073085;28;20075;-74
2023/07/09 07:54:24;;;;;;;8.20;5.95;;;25.90;75.60;;;;;;5073801;28;20027;-74
2023/07/09 07:56:50;;;;;;;11.48;6.68;;;26.00;76.40;;;;;;5073731;28;20038;-74
2023/07/09 07:59:17;;;;;;;10.25;6.25;;;26.00;76.30;;;;;;5073844;28;20103;-74
2023/07/09 08:01:43;;;;;;;7.95;5.97;;;26.10;76.10;;;;;;5073342;28;20114;-74
2023/07/09 08:04:09;;;;;;;10.68;6.40;;;26.10;75.70;;;;;;5073597;28;20103;-74
2023/07/09 08:06:35;;;;;;;10.98;6.35;;;26.20;75.50;;;;;;5073860;28;20028;-74
2023/07/09 08:09:01;;;;;;;8.68;5.90;;;26.20;76.20;;;;;;5055706;28;20059;-74
2023/07/09 08:11:29;;;;;;;9.55;6.47;;;26.20;76.30;;;;;;5073516;28;20378;-74
2023/07/09 08:13:55;;;;;;;7.15;5.95;;;26.30;75.70;;;;;;5073693;28;20421;-74
2023/07/09 08:16:21;;;;;;;8.65;6.63;;;26.40;75.40;;;;;;5073332;28;20047;-73
2023/07/09 08:18:47;;;;;;;10.70;6.50;;;26.40;75.00;;;;;;5073255;28;20029;-74
2023/07/09 08:21:12;;;;;;;8.45;5.80;;;26.50;75.00;;;;;;5072990;28;20028;-74
2023/07/09 08:23:39;;;;;;;8.30;6.43;;;26.50;75.40;;;;;;5073413;28;20021;-74
2023/07/09 08:26:04;;;;;;;12.27;6.20;;;26.60;75.30;;;;;;5073175;28;20025;-73
2023/07/09 08:28:30;;;;;;;9.13;5.88;;;26.70;74.90;;;;;;5073086;28;20504;-74
2023/07/09 08:30:56;;;;;;;17.48;6.40;;;26.70;74.60;;;;;;5073375;28;20032;-74
2023/07/09 08:33:23;;;;;;;12.75;6.22;;;26.80;75.00;;;;;;5073323;28;20482;-74
2023/07/09 08:35:51;;;;;;;13.80;6.78;;;26.80;75.70;;;;;;5072929;28;20024;-74
2023/07/09 08:38:17;;;;;;;7.90;6.07;;;26.90;76.00;;;;;;5072994;28;20111;-74
2023/07/09 08:40:58;;;;;;;7.18;5.82;;;27.00;75.10;;;;;;5073155;28;20068;-74
2023/07/09 08:43:44;;;;;;;6.90;5.80;;;27.00;74.60;;;;;;5073039;28;20116;-74
2023/07/09 08:46:18;;;;;;;7.97;6.00;;;27.10;74.80;;;;;;5072884;28;20420;-74
2023/07/09 08:48:47;;;;;;;13.93;6.10;;;27.20;74.10;;;;;;5073117;28;20025;-74
2023/07/09 08:51:40;;;;;;;12.70;6.30;;;27.20;73.70;;;;;;5072968;28;20036;-74
2023/07/09 08:54:15;;;;;;;10.77;5.80;;;27.30;73.00;;;;;;5073010;28;20699;-74
2023/07/09 08:56:41;;;;;;;14.05;6.38;;;27.40;72.30;;;;;;5054713;28;20456;-74
2023/07/09 08:59:12;;;;;;;9.10;5.75;;;27.40;71.90;;;;;;5073013;28;20053;-74
2023/07/09 09:01:57;;;;;;;9.57;6.32;;;27.50;71.90;;;;;;5072724;28;20070;-74
2023/07/09 09:04:34;;;;;;;6.18;5.22;;;27.60;72.10;;;;;;5072425;28;20028;-74
2023/07/09 09:07:20;;;;;;;8.43;6.35;;;27.70;72.00;;;;;;5072838;28;20040;-74
2023/07/09 09:10:00;;;;;;;8.80;5.68;;;27.70;70.80;;;;;;5072660;28;20032;-74
2023/07/09 09:12:30;;;;;;;7.82;5.88;;;27.70;70.40;;;;;;5072779;28;20024;-74
2023/07/09 09:17:29;;;;;;;8.77;6.07;;;27.80;70.20;;;;;;5077097;22;20590;-74
2023/07/09 09:19:56;;;;;;;7.75;5.85;;;27.90;70.20;;;;;;5072914;28;20052;-74
2023/07/09 09:22:27;;;;;;;10.55;6.07;;;28.00;69.90;;;;;;5072695;28;20032;-74
2023/07/09 09:25:11;;;;;;;7.60;5.75;;;28.00;69.90;;;;;;5072890;28;20107;-74
2023/07/09 09:27:38;;;;;;;8.27;6.00;;;28.10;69.60;;;;;;5072758;28;20039;-74
2023/07/09 09:30:08;;;;;;;8.85;5.82;;;28.10;69.70;;;;;;5072629;28;20048;-74
2023/07/09 09:32:44;;;;;;;12.95;6.13;;;28.20;70.20;;;;;;5072534;28;20039;-74
2023/07/09 09:35:20;;;;;;;10.98;6.88;;;28.20;70.10;;;;;;5072690;28;20033;-74
2023/07/09 09:37:57;;;;;;;11.70;6.47;;;28.30;69.80;;;;;;5072697;28;20035;-74
2023/07/09 09:40:25;;;;;;;8.75;5.47;;;28.40;69.30;;;;;;5072299;28;20051;-74
2023/07/09 09:42:57;;;;;;;8.32;6.20;;;28.40;69.00;;;;;;5072610;28;20078;-74
2023/07/09 09:45:35;;;;;;;7.80;5.47;;;28.50;69.70;;;;;;5072557;28;20025;-74
2023/07/09 09:48:09;;;;;;;7.85;6.00;;;28.50;68.70;;;;;;5072255;28;20028;-74
2023/07/09 09:50:35;;;;;;;12.73;6.00;;;28.60;68.60;;;;;;5072625;28;20017;-74
2023/07/09 09:53:01;;;;;;;8.02;5.60;;;28.60;69.50;;;;;;5072451;28;20040;-74
2023/07/09 09:55:32;;;;;;;7.60;5.90;;;28.70;69.00;;;;;;5054506;28;20025;-74
2023/07/09 09:58:00;;;;;;;11.70;5.95;;;28.80;69.60;;;;;;5072505;28;20587;-74
2023/07/09 10:00:28;;;;;;;10.20;5.93;;;28.90;68.50;;;;;;5072227;28;20021;-74
2023/07/09 10:03:03;;;;;;;8.57;5.63;;;29.00;68.40;;;;;;5072349;28;20131;-74
2023/07/09 10:05:50;;;;;;;8.88;5.95;;;29.00;67.70;;;;;;5072361;28;20107;-74
2023/07/09 10:08:54;;;;;;;9.27;5.75;;;29.10;66.70;;;;;;5072303;28;20486;-74
2023/07/09 10:11:53;;;;;;;6.18;5.13;;;29.10;66.70;;;;;;5072278;28;20382;-74
2023/07/09 10:14:46;;;;;;;8.60;5.47;;;29.10;66.40;;;;;;5072058;28;20021;-74
2023/07/09 10:17:38;;;;;;;6.93;5.50;;;29.20;66.70;;;;;;5075220;28;20091;-74
2023/07/09 10:20:42;;;;;;;7.45;5.70;;;29.30;66.90;;;;;;5075977;28;20561;-74
2023/07/09 10:23:26;;;;;;;8.80;6.47;;;29.30;66.40;;;;;;4994325;28;20090;-74
2023/07/09 10:26:14;;;;;;;11.25;5.70;;;29.40;66.20;;;;;;4994304;28;20137;-74
2023/07/09 10:28:43;;;;;;;9.65;5.65;;;29.40;66.10;;;;;;5054810;28;20032;-74
2023/07/09 10:31:15;;;;;;;9.82;5.97;;;29.50;66.20;;;;;;5075541;28;20029;-74
2023/07/09 10:34:08;;;;;;;10.07;5.90;;;29.60;65.80;;;;;;5057419;28;20028;-74
2023/07/09 10:36:57;;;;;;;9.10;5.60;;;29.70;65.90;;;;;;5075181;28;20111;-73
2023/07/09 10:39:29;;;;;;;11.43;6.05;;;29.70;65.60;;;;;;5075346;28;20029;-74
2023/07/09 10:41:59;;;;;;;7.18;5.38;;;29.80;64.90;;;;;;5075533;28;20050;-73
2023/07/09 10:44:42;;;;;;;8.50;5.70;;;29.80;64.80;;;;;;5075362;28;20062;-74
2023/07/09 10:47:34;;;;;;;8.32;6.03;;;29.90;65.60;;;;;;5075254;28;20030;-74
2023/07/09 10:50:02;;;;;;;12.05;5.30;;;29.90;65.30;;;;;;5074717;28;20043;-74
2023/07/09 10:52:36;;;;;;;8.85;5.28;;;29.90;65.30;;;;;;5074919;28;20024;-74
2023/07/09 10:55:20;;;;;;;7.97;5.68;;;30.00;65.40;;;;;;5075244;28;20077;-74
2023/07/09 10:58:04;;;;;;;8.27;5.50;;;30.00;65.40;;;;;;5073730;28;20044;-74
2023/07/09 11:00:38;;;;;;;12.15;5.07;;;30.10;65.70;;;;;;5072251;28;20486;-75
2023/07/09 11:03:47;;;;;;;8.13;5.95;;;30.20;65.40;;;;;;5072902;28;20033;-73
2023/07/09 11:06:44;;;;;;;8.15;5.72;;;30.20;65.70;;;;;;5061439;28;20530;-74
2023/07/09 11:09:32;;;;;;;10.13;5.80;;;30.30;66.00;;;;;;5068310;28;20048;-74
2023/07/09 11:12:04;;;;;;;14.70;5.53;;;30.40;65.80;;;;;;5074913;28;20039;-74
2023/07/09 11:14:40;;;;;;;7.18;4.97;;;30.40;65.70;;;;;;5074649;28;20035;-73
2023/07/09 11:17:13;;;;;;;13.55;5.70;;;30.40;65.70;;;;;;5074308;28;20052;-73
2023/07/09 11:19:44;;;;;;;6.43;5.70;;;30.50;65.40;;;;;;5074693;28;20129;-74
2023/07/09 11:22:20;;;;;;;6.68;5.25;;;30.50;65.50;;;;;;5074723;28;20028;-73
2023/07/09 11:25:07;;;;;;;10.32;5.40;;;30.60;64.90;;;;;;5070965;28;20523;-74
2023/07/09 11:27:44;;;;;;;8.23;5.50;;;30.60;64.10;;;;;;5071659;28;20477;-74
2023/07/09 11:30:22;;;;;;;9.95;5.15;;;30.70;63.70;;;;;;5073240;28;20094;-73
2023/07/09 11:32:58;;;;;;;7.72;5.65;;;30.70;64.90;;;;;;5074064;28;20412;-73
2023/07/09 11:35:27;;;;;;;10.75;5.95;;;30.80;64.10;;;;;;5074388;28;20035;-73
2023/07/09 11:37:54;;;;;;;11.18;5.57;;;30.80;62.70;;;;;;5073952;28;20186;-73
2023/07/09 11:40:20;;;;;;;7.32;5.50;;;30.80;62.60;;;;;;5074412;28;20048;-73
2023/07/09 11:42:51;;;;;;;10.55;5.53;;;30.90;62.20;;;;;;5074324;28;20063;-73
2023/07/09 11:45:27;;;;;;;7.43;5.78;;;30.90;62.40;;;;;;5073952;28;20078;-74
2023/07/09 11:48:07;;;;;;;10.38;5.38;;;30.90;62.90;;;;;;5073871;28;20387;-73
2023/07/09 11:50:41;;;;;;;8.48;5.57;;;31.00;62.20;;;;;;5074100;28;20591;-73
2023/07/09 11:53:32;;;;;;;9.30;5.35;;;31.00;61.90;;;;;;5073710;28;20025;-74
2023/07/09 11:55:58;;;;;;;8.88;6.28;;;31.10;61.60;;;;;;5073610;28;20085;-74
2023/07/09 11:58:24;;;;;;;7.78;5.65;;;31.20;61.30;;;;;;5073467;28;20028;-73
2023/07/09 12:00:55;;;;;;;7.65;5.90;;;31.20;61.00;;;;;;5073564;28;20040;-74
2023/07/09 12:03:26;;;;;;;;;;;31.20;60.90;;;;;;5074300;28;20047;-74
2023/07/09 12:05:54;;;;;;;6.82;5.47;;;31.20;61.00;;;;;;5073676;28;19913;-74
2023/07/09 12:08:37;;;;;;;10.07;5.30;;;31.20;61.30;;;;;;5073820;28;20025;-73
2023/07/09 12:11:03;;;;;;;9.50;5.85;;;31.30;61.80;;;;;;5073772;28;20078;-73
2023/07/09 12:13:35;;;;;;;11.07;5.30;;;31.30;61.20;;;;;;5073489;28;20024;-74
2023/07/09 12:16:01;;;;;;;9.02;5.65;;;31.30;61.00;;;;;;5073390;28;20563;-73
2023/07/09 12:18:30;;;;;;;8.05;5.55;;;31.40;61.00;;;;;;5073379;28;20096;-73
2023/07/09 12:20:55;;;;;;;11.23;5.38;;;31.40;60.80;;;;;;5073606;28;20021;-74
2023/07/09 12:23:26;;;;;;;9.55;5.72;;;31.50;60.70;;;;;;5073385;28;20085;-73
2023/07/09 12:25:52;;;;;;;9.37;6.40;;;31.60;60.90;;;;;;5073282;28;20075;-73
2023/07/09 12:28:20;;;;;;;6.88;5.72;;;31.60;60.70;;;;;;5073306;28;20478;-74
2023/07/09 12:30:51;;;;;;;12.82;6.07;;;31.60;60.10;;;;;;5073406;28;20421;-73
2023/07/09 12:33:18;;;;;;;7.43;5.65;;;31.70;60.30;;;;;;5073090;28;20025;-74
2023/07/09 12:35:45;;;;;;;11.50;5.80;;;31.70;60.00;;;;;;5073241;28;20020;-73
2023/07/09 12:38:21;;;;;;;9.85;5.63;;;31.70;60.00;;;;;;5072704;28;20508;-74
2023/07/09 12:40:48;;;;;;;13.43;5.78;;;31.80;60.10;;;;;;5073232;28;20035;-74
2023/07/09 12:43:17;;;;;;;6.82;5.05;;;31.80;59.50;;;;;;5073299;28;20107;-74
2023/07/09 12:45:44;;;;;;;11.88;6.03;;;31.80;59.50;;;;;;5072999;28;20032;-73
2023/07/09 12:48:13;;;;;;;8.32;5.65;;;31.80;59.50;;;;;;5054861;28;20039;-73
2023/07/09 12:50:38;;;;;;;9.20;5.88;;;31.80;60.00;;;;;;5072877;28;20081;-74
2023/07/09 12:53:26;;;;;;;16.15;5.75;;;31.90;59.70;;;;;;5072952;28;20545;-73
2023/07/09 12:55:56;;;;;;;8.93;5.78;;;31.90;59.60;;;;;;5072574;28;20029;-73
2023/07/09 12:58:26;;;;;;;10.10;5.18;;;32.00;59.00;;;;;;5072782;28;20490;-73
2023/07/09 13:00:53;;;;;;;7.25;5.38;;;32.00;58.40;;;;;;5072957;28;20029;-74